Time;durP1;ratioP1;P1;durP2;ratioP2;P2;SDS_P1;SDS_P2;PMS_P1;PMS_P2;Temp;Humidity;BMP_temperature;BMP_pressure;BME280_temperature;BME280_humidity;BME280_pressure;Samples;Min_cycle;Max_cycle;Signal;HPM_P1;HPM_P2
2021/04/12 00:02:18;;;;;;;26.10;8.00;;;;;;;9.24;63.65;98904.86;2283368;78;21260;-72
2021/04/12 00:05:20;;;;;;;28.42;11.30;;;;;;;9.27;63.41;98903.41;2283355;78;21272;-73
2021/04/12 00:08:22;;;;;;;28.12;10.08;;;;;;;9.30;63.55;98909.30;2283403;78;21295;-72
2021/04/12 00:11:24;;;;;;;27.42;9.28;;;;;;;9.31;64.26;98914.06;2283624;78;21275;-73
2021/04/12 00:14:26;;;;;;;28.45;9.35;;;;;;;9.27;63.90;98909.48;2283640;78;21288;-72
2021/04/12 00:17:28;;;;;;;28.62;8.90;;;;;;;9.24;63.83;98905.72;2283608;78;21272;-73
2021/04/12 00:20:30;;;;;;;24.27;8.43;;;;;;;9.28;63.86;98903.77;2283342;78;21268;-71
2021/04/12 00:23:37;;;;;;;22.87;7.42;;;;;;;9.30;63.70;98908.47;2283274;78;21280;-72
2021/04/12 00:26:39;;;;;;;25.95;8.45;;;;;;;9.28;63.95;98909.00;2283496;78;21263;-72
2021/04/12 00:29:41;;;;;;;25.95;8.38;;;;;;;9.25;63.90;98903.50;2283342;78;21532;-72
2021/04/12 00:32:43;;;;;;;23.85;7.42;;;;;;;9.28;63.83;98899.40;2283558;78;21284;-72
2021/04/12 00:35:45;;;;;;;26.10;8.28;;;;;;;9.27;63.75;98900.80;2283391;78;21276;-73
2021/04/12 00:38:47;;;;;;;30.40;8.30;;;;;;;9.25;63.78;98898.70;2283633;78;21310;-72
2021/04/12 00:41:49;;;;;;;26.50;8.13;;;;;;;9.24;63.92;98897.00;2283335;78;21264;-72
2021/04/12 00:44:51;;;;;;;25.35;8.33;;;;;;;9.25;63.99;98890.85;2283327;78;21129;-72
2021/04/12 00:47:53;;;;;;;21.65;7.95;;;;;;;9.17;64.03;98888.19;2283319;78;21141;-74
2021/04/12 00:50:55;;;;;;;23.00;7.78;;;;;;;9.05;64.37;98890.17;2283298;78;21268;-72
2021/04/12 00:53:57;;;;;;;23.85;8.20;;;;;;;9.05;64.37;98890.17;2283432;78;21138;-74
2021/04/12 00:56:59;;;;;;;23.73;8.18;;;;;;;8.97;64.52;98891.88;2283311;78;21148;-72
2021/04/12 01:00:01;;;;;;;25.05;8.88;;;;;;;8.93;64.66;98886.42;2283313;78;21181;-72
2021/04/12 01:03:03;;;;;;;26.12;9.05;;;;;;;8.86;64.67;98879.83;2283582;78;21576;-72
2021/04/12 01:06:05;;;;;;;25.08;9.35;;;;;;;8.86;65.03;98875.91;2283277;78;21124;-74
2021/04/12 01:09:08;;;;;;;;;;;;;;;8.83;64.90;98878.69;2285923;78;21150;-72
2021/04/12 01:12:10;;;;;;;32.90;10.88;;;;;;;8.77;64.94;98882.47;2283598;78;20510;-73
2021/04/12 01:15:13;;;;;;;31.10;10.98;;;;;;;8.64;65.14;98879.65;2283310;78;21121;-71
2021/04/12 01:18:15;;;;;;;36.80;13.32;;;;;;;8.55;65.48;98874.05;2283131;78;21284;-71
2021/04/12 01:21:17;;;;;;;35.13;11.83;;;;;;;8.49;65.49;98868.23;2263842;78;21614;-71
2021/04/12 01:24:19;;;;;;;28.12;10.93;;;;;;;8.43;65.50;98867.22;2263460;79;21590;-73
2021/04/12 01:27:21;;;;;;;25.40;8.28;;;;;;;8.33;65.83;98875.98;2263437;78;21625;-72
2021/04/12 01:30:23;;;;;;;27.50;9.95;;;;;;;8.30;66.21;98873.98;2263461;78;21126;-73
2021/04/12 01:33:25;;;;;;;27.22;10.28;;;;;;;8.22;66.25;98869.16;2263470;79;21752;-73
2021/04/12 01:36:27;;;;;;;27.02;8.50;;;;;;;8.16;66.48;98872.08;2263436;78;21150;-72
2021/04/12 01:39:29;;;;;;;26.45;9.08;;;;;;;8.15;66.62;98875.61;2263806;78;21297;-73
2021/04/12 01:42:31;;;;;;;25.23;9.93;;;;;;;8.13;66.77;98873.08;2263472;78;21173;-72
2021/04/12 01:45:34;;;;;;;22.98;8.95;;;;;;;8.17;67.09;98867.69;2263452;79;21594;-72
2021/04/12 01:48:36;;;;;;;24.80;8.68;;;;;;;8.14;67.03;98864.77;2263432;79;21700;-72
2021/04/12 01:51:39;;;;;;;28.32;9.68;;;;;;;8.19;67.35;98860.61;2263696;78;21256;-75
2021/04/12 01:54:41;;;;;;;28.65;10.75;;;;;;;8.23;67.04;98858.23;2263561;78;21327;-73
2021/04/12 01:57:43;;;;;;;26.37;9.95;;;;;;;8.21;66.90;98854.39;2263756;78;21740;-72
2021/04/12 02:00:46;;;;;;;31.70;11.97;;;;;;;8.19;66.83;98858.86;2263435;78;21272;-72
2021/04/12 02:03:48;;;;;;;27.62;10.55;;;;;;;8.15;66.92;98854.70;2263667;78;21174;-74
2021/04/12 02:06:50;;;;;;;26.85;9.65;;;;;;;8.14;66.92;98847.31;2263472;78;21142;-73
2021/04/12 02:09:56;;;;;;;25.08;9.45;;;;;;;8.15;66.67;98853.40;2263520;78;21707;-75
2021/04/12 02:12:58;;;;;;;27.87;9.40;;;;;;;8.12;66.84;98855.70;2263563;78;21705;-72
2021/04/12 02:16:00;;;;;;;28.15;10.43;;;;;;;8.03;67.47;98854.00;2263403;78;21157;-75
2021/04/12 02:19:04;;;;;;;34.15;12.95;;;;;;;7.92;67.19;98859.78;2263317;79;21589;-72
2021/04/12 02:22:06;;;;;;;33.63;12.78;;;;;;;7.84;67.09;98861.44;2263430;78;21091;-73
2021/04/12 02:25:08;;;;;;;32.38;10.80;;;;;;;7.82;67.26;98860.69;2263410;78;21141;-73
2021/04/12 02:28:13;;;;;;;28.38;9.40;;;;;;;7.83;67.21;98861.08;2263725;78;21275;-74
2021/04/12 02:31:21;;;;;;;23.87;9.20;;;;;;;7.83;67.01;98858.47;2263647;78;21584;-73
2021/04/12 02:34:23;;;;;;;25.85;8.95;;;;;;;7.77;67.21;98859.62;2263299;79;21126;-72
2021/04/12 02:37:25;;;;;;;26.57;9.45;;;;;;;7.62;67.21;98861.66;2263689;78;21280;-71
2021/04/12 02:40:29;;;;;;;29.12;9.95;;;;;;;7.56;67.26;98861.97;2263577;78;21268;-72
2021/04/12 02:43:33;;;;;;;26.42;8.73;;;;;;;7.52;67.49;98860.41;2263447;79;21312;-74
2021/04/12 02:46:39;;;;;;;29.42;9.33;;;;;;;7.50;67.61;98864.41;2263641;78;21252;-72
2021/04/12 02:49:40;;;;;;;29.67;11.08;;;;;;;7.45;67.60;98858.55;2263601;78;21303;-73
2021/04/12 02:52:42;;;;;;;32.25;10.75;;;;;;;7.36;67.67;98865.05;2263656;78;21269;-72
2021/04/12 02:55:45;;;;;;;31.40;11.40;;;;;;;7.36;67.89;98865.05;2263591;79;21145;-74
2021/04/12 02:58:47;;;;;;;27.80;9.23;;;;;;;7.33;67.74;98857.37;2263574;78;21751;-72
2021/04/12 03:01:49;;;;;;;27.32;7.90;;;;;;;7.26;67.82;98863.33;2263980;78;21284;-76
2021/04/12 03:04:51;;;;;;;28.60;8.43;;;;;;;7.13;68.48;98865.30;2263559;78;21309;-75
2021/04/12 03:07:53;;;;;;;27.27;9.03;;;;;;;7.03;68.34;98864.39;2263617;79;21704;-73
2021/04/12 03:10:57;;;;;;;34.38;10.93;;;;;;;7.07;68.18;98867.25;2263715;78;21296;-79
2021/04/12 03:13:59;;;;;;;25.20;8.18;;;;;;;7.10;68.19;98868.41;2263561;79;21284;-72
2021/04/12 03:17:01;;;;;;;25.55;8.10;;;;;;;7.10;68.15;98863.20;2263717;78;21920;-73
2021/04/12 03:20:03;;;;;;;24.47;8.90;;;;;;;7.07;67.87;98867.72;2263499;79;21287;-74
2021/04/12 03:23:05;;;;;;;29.02;8.63;;;;;;;6.99;68.26;98868.05;2263599;78;21287;-72
2021/04/12 03:26:07;;;;;;;25.88;8.63;;;;;;;6.94;68.34;98867.44;2263644;78;21288;-71
2021/04/12 03:29:09;;;;;;;27.35;10.90;;;;;;;6.80;68.44;98862.84;2263554;78;21740;-71
2021/04/12 03:32:11;;;;;;;24.43;9.05;;;;;;;6.75;68.68;98855.66;2263824;78;21308;-71
2021/04/12 03:35:13;;;;;;;22.58;8.05;;;;;;;6.74;68.47;98853.52;2263569;79;21256;-72
2021/04/12 03:38:15;;;;;;;21.20;7.25;;;;;;;6.74;68.42;98853.52;2263562;78;21272;-72
2021/04/12 03:41:17;;;;;;;22.52;7.70;;;;;;;6.79;68.35;98857.70;2263609;79;21292;-71
2021/04/12 03:44:19;;;;;;;22.77;7.25;;;;;;;6.69;68.77;98857.25;2263590;79;21103;-71
2021/04/12 03:47:21;;;;;;;23.38;7.92;;;;;;;6.60;68.67;98855.91;2263566;78;21166;-71
2021/04/12 03:50:23;;;;;;;33.40;15.78;;;;;;;6.58;68.97;98857.27;2263527;78;21091;-71
2021/04/12 03:53:25;;;;;;;61.48;33.02;;;;;;;6.55;68.92;98860.46;2236067;79;21253;-72
2021/04/12 03:56:27;;;;;;;49.08;17.10;;;;;;;6.61;69.04;98865.42;2263710;78;21680;-72
2021/04/12 03:59:29;;;;;;;28.62;9.75;;;;;;;6.58;69.09;98865.56;2263632;78;21696;-72
2021/04/12 04:02:31;;;;;;;23.70;8.30;;;;;;;6.52;69.01;98873.19;2263573;78;21154;-73
2021/04/12 04:05:33;;;;;;;25.65;8.80;;;;;;;6.46;69.26;98869.53;2263520;78;21594;-71
2021/04/12 04:08:36;;;;;;;;;;;;;;;6.48;69.54;98869.45;2266259;79;21122;-72
2021/04/12 04:11:38;;;;;;;27.98;8.85;;;;;;;6.51;69.63;98866.75;2263719;79;20149;-72
2021/04/12 04:14:40;;;;;;;29.90;9.78;;;;;;;6.53;69.54;98865.74;2263534;78;21146;-72
2021/04/12 04:17:42;;;;;;;25.02;8.00;;;;;;;6.60;69.81;98863.72;2263558;78;21143;-72
2021/04/12 04:20:44;;;;;;;27.10;8.40;;;;;;;6.73;69.70;98865.33;2274041;78;21267;-73
2021/04/12 04:23:47;;;;;;;25.62;8.10;;;;;;;6.85;69.55;98862.62;2283245;78;21264;-72
2021/04/12 04:26:48;;;;;;;23.22;8.83;;;;;;;6.88;69.28;98865.95;2283458;78;21268;-72
2021/04/12 04:29:50;;;;;;;23.47;8.68;;;;;;;7.04;69.34;98866.53;2283412;78;21715;-74
2021/04/12 04:32:52;;;;;;;22.22;8.00;;;;;;;7.14;69.08;98866.96;2283369;78;21703;-71
2021/04/12 04:35:55;;;;;;;23.22;7.70;;;;;;;7.18;69.02;98862.00;2283696;78;21263;-71
2021/04/12 04:38:57;;;;;;;21.15;7.62;;;;;;;7.19;69.00;98869.75;2283988;78;21673;-72
2021/04/12 04:41:59;;;;;;;24.85;8.65;;;;;;;7.32;69.00;98868.72;2283343;78;21165;-72
2021/04/12 04:45:01;;;;;;;22.40;8.10;;;;;;;7.40;69.09;98872.30;2283335;78;21576;-72
2021/04/12 04:48:03;;;;;;;24.55;8.93;;;;;;;7.55;69.33;98875.45;2283327;78;21589;-73
2021/04/12 04:51:05;;;;;;;23.02;7.78;;;;;;;7.72;68.98;98867.28;2283285;78;21727;-71
2021/04/12 04:54:07;;;;;;;22.17;7.95;;;;;;;7.86;68.67;98875.73;2283392;78;21703;-72
2021/04/12 04:57:09;;;;;;;24.07;8.05;;;;;;;7.90;68.57;98878.14;2283322;78;21724;-73
2021/04/12 05:00:11;;;;;;;26.45;8.85;;;;;;;8.02;68.54;98876.69;2283318;78;21549;-71
2021/04/12 05:03:13;;;;;;;22.13;8.25;;;;;;;8.08;68.47;98881.59;2283297;78;21263;-72
2021/04/12 05:06:15;;;;;;;26.55;8.45;;;;;;;8.20;68.42;98882.73;2283364;78;21704;-72
2021/04/12 05:09:17;;;;;;;21.95;7.60;;;;;;;8.35;68.26;98882.44;2283355;78;21283;-72
2021/04/12 05:12:19;;;;;;;27.02;9.73;;;;;;;8.54;68.05;98881.53;2283345;78;21141;-72
2021/04/12 05:15:21;;;;;;;23.22;8.43;;;;;;;8.68;67.76;98886.89;2283296;78;21126;-71
2021/04/12 05:18:24;;;;;;;33.60;14.40;;;;;;;8.84;67.53;98881.22;2283338;78;21276;-71
2021/04/12 05:21:26;;;;;;;30.15;11.68;;;;;;;8.98;67.32;98887.51;2270173;78;21185;-73
2021/04/12 05:24:28;;;;;;;33.00;11.40;;;;;;;9.07;67.19;98892.70;2263546;79;21170;-72
2021/04/12 05:27:30;;;;;;;27.10;9.38;;;;;;;9.20;67.23;98887.19;2263771;78;21272;-72
2021/04/12 05:30:32;;;;;;;31.65;10.95;;;;;;;9.38;66.86;98891.03;2263487;79;21150;-71
2021/04/12 05:33:34;;;;;;;30.48;11.10;;;;;;;9.54;66.30;98893.19;2263443;78;21126;-77
2021/04/12 05:36:36;;;;;;;21.87;7.85;;;;;;;9.65;66.30;98897.81;2263596;79;21145;-72
2021/04/12 05:39:38;;;;;;;22.42;7.92;;;;;;;9.78;66.06;98890.95;2263477;78;21551;-72
2021/04/12 05:42:40;;;;;;;23.18;7.78;;;;;;;9.85;65.66;98892.28;2263594;78;21574;-72
2021/04/12 05:45:42;;;;;;;21.10;7.50;;;;;;;9.90;65.52;98889.42;2263455;78;21609;-72
2021/04/12 05:48:44;;;;;;;25.23;8.58;;;;;;;9.94;65.72;98896.19;2263460;78;21134;-72
2021/04/12 05:51:46;;;;;;;23.20;7.10;;;;;;;10.08;65.34;98895.37;2263414;78;21146;-75
2021/04/12 05:54:48;;;;;;;25.50;7.92;;;;;;;10.22;65.23;98895.41;2263478;78;21142;-74
2021/04/12 05:57:50;;;;;;;22.55;7.42;;;;;;;10.38;65.00;98902.41;2263601;79;21289;-71
2021/04/12 06:00:52;;;;;;;22.48;7.62;;;;;;;10.50;64.49;98900.84;2263573;78;21649;-75
2021/04/12 06:03:54;;;;;;;21.48;7.08;;;;;;;10.64;64.53;98897.40;2263535;78;21588;-73
2021/04/12 06:06:56;;;;;;;27.50;8.38;;;;;;;10.86;63.81;98892.55;2263559;78;21562;-75
2021/04/12 06:09:58;;;;;;;21.90;6.87;;;;;;;11.04;63.83;98892.34;2263448;78;21126;-76
2021/04/12 06:13:00;;;;;;;22.42;7.25;;;;;;;11.17;63.22;98890.64;2263547;78;21154;-74
2021/04/12 06:19:41;;;;;;;21.12;7.37;;;;;;;11.66;62.89;98898.98;2263552;79;21138;-76
2021/04/12 06:22:43;;;;;;;22.77;8.23;;;;;;;11.92;62.86;98892.89;2283482;78;21252;-76
2021/04/12 06:25:45;;;;;;;21.65;6.85;;;;;;;12.13;61.50;98901.64;2283840;78;21275;-76
2021/04/12 06:28:47;;;;;;;24.02;7.92;;;;;;;12.22;61.51;98899.70;2283501;78;21284;-75
2021/04/12 06:31:49;;;;;;;23.70;7.62;;;;;;;12.39;61.34;98897.27;2283485;78;21276;-74
2021/04/12 06:34:51;;;;;;;21.82;7.35;;;;;;;12.39;61.34;98897.27;2283484;78;21736;-74
2021/04/12 06:37:53;;;;;;;22.25;7.20;;;;;;;12.60;61.20;98911.25;2283511;78;21260;-75
2021/04/12 06:40:55;;;;;;;23.05;7.15;;;;;;;12.80;60.41;98904.14;2283726;78;21692;-75
2021/04/12 06:43:57;;;;;;;21.23;7.00;;;;;;;13.02;60.09;98907.08;2250813;78;21715;-76
2021/04/12 06:46:59;;;;;;;21.05;6.55;;;;;;;13.20;59.89;98908.39;2283530;78;21276;-75
2021/04/12 06:50:01;;;;;;;;;;;;;;;13.43;59.39;98902.87;2286336;78;21751;-75
2021/04/12 06:53:03;;;;;;;20.47;6.13;;;;;;;13.74;58.66;98901.95;2283602;78;20282;-73
2021/04/12 06:56:06;;;;;;;21.35;5.95;;;;;;;13.94;58.11;98895.22;2283479;78;21795;-72
2021/04/12 06:59:08;;;;;;;24.30;8.33;;;;;;;14.19;57.54;98892.93;2283460;78;21283;-73
2021/04/12 07:02:10;;;;;;;22.10;7.28;;;;;;;14.57;57.66;98898.91;2283477;78;21260;-74
2021/04/12 07:05:13;;;;;;;22.02;6.90;;;;;;;15.13;56.03;98894.17;2283293;78;21271;-74
2021/04/12 07:08:15;;;;;;;27.00;8.65;;;;;;;15.50;55.95;98893.89;2283481;78;21275;-72
2021/04/12 07:11:17;;;;;;;28.98;13.18;;;;;;;15.85;55.00;98893.34;2250747;78;21283;-74
2021/04/12 07:14:19;;;;;;;24.43;8.50;;;;;;;15.90;53.09;98894.65;2283361;78;21268;-73
2021/04/12 07:17:21;;;;;;;19.55;6.70;;;;;;;15.81;54.07;98894.06;2278322;78;21561;-73
2021/04/12 07:20:23;;;;;;;19.42;6.65;;;;;;;15.92;53.58;98897.16;2283652;78;21346;-74
2021/04/12 07:23:25;;;;;;;23.12;8.13;;;;;;;16.07;54.16;98894.55;2283553;78;21565;-74
2021/04/12 07:26:27;;;;;;;22.27;7.28;;;;;;;16.13;53.06;98893.20;2283429;78;21248;-71
2021/04/12 07:29:29;;;;;;;25.50;7.90;;;;;;;16.09;52.70;98902.36;2283449;78;21280;-73
2021/04/12 07:32:31;;;;;;;26.93;9.58;;;;;;;16.02;52.68;98907.34;2283581;78;21851;-74
2021/04/12 07:35:33;;;;;;;29.02;12.13;;;;;;;16.07;53.40;98906.95;2283644;78;21264;-73
2021/04/12 07:38:35;;;;;;;37.20;18.90;;;;;;;16.13;52.67;98910.41;2283692;78;21147;-72
2021/04/12 07:41:37;;;;;;;31.70;15.00;;;;;;;16.15;52.66;98915.11;2283396;78;21133;-74
2021/04/12 07:44:39;;;;;;;27.42;9.50;;;;;;;16.21;52.62;98907.97;2283393;78;21279;-74
2021/04/12 07:47:41;;;;;;;25.55;9.93;;;;;;;16.31;52.13;98904.58;2283516;78;21581;-71
2021/04/12 07:50:44;;;;;;;46.95;21.33;;;;;;;16.46;52.69;98904.59;2283534;78;21124;-72
2021/04/12 07:53:46;;;;;;;24.43;8.50;;;;;;;16.75;52.13;98898.16;2283445;78;21141;-71
2021/04/12 07:56:48;;;;;;;22.58;8.53;;;;;;;16.87;50.77;98907.36;2283433;78;21707;-72
2021/04/12 07:59:50;;;;;;;26.85;10.00;;;;;;;16.94;50.55;98908.05;2283420;78;21318;-71
2021/04/12 08:02:52;;;;;;;21.05;7.08;;;;;;;17.07;50.62;98907.00;2283452;78;21763;-72
2021/04/12 08:05:55;;;;;;;35.35;15.23;;;;;;;17.12;50.14;98906.95;2283684;78;21264;-72
2021/04/12 08:08:57;;;;;;;27.00;9.63;;;;;;;17.19;49.87;98907.23;2283226;78;21268;-72
2021/04/12 08:11:59;;;;;;;22.40;6.62;;;;;;;17.31;49.82;98898.22;2283547;78;21276;-71
2021/04/12 08:15:01;;;;;;;22.82;7.50;;;;;;;17.44;48.85;98899.30;2250752;78;21279;-71
2021/04/12 08:18:03;;;;;;;22.00;6.85;;;;;;;17.50;48.63;98904.55;2283618;78;21101;-71
2021/04/12 08:21:06;;;;;;;20.37;6.17;;;;;;;17.60;48.51;98904.08;2277690;78;21264;-73
2021/04/12 08:24:09;;;;;;;20.62;6.72;;;;;;;17.49;47.63;98906.84;2263674;79;21253;-72
2021/04/12 08:27:11;;;;;;;21.05;5.90;;;;;;;17.41;48.44;98907.53;2263696;78;21142;-71
2021/04/12 08:30:13;;;;;;;21.27;6.72;;;;;;;17.39;48.29;98910.79;2263561;78;21125;-72
2021/04/12 08:33:15;;;;;;;20.50;6.42;;;;;;;17.41;47.92;98911.52;2263575;79;21114;-72
2021/04/12 08:36:17;;;;;;;21.27;6.95;;;;;;;17.43;47.91;98912.20;2263457;79;21130;-71
2021/04/12 08:39:19;;;;;;;25.43;7.08;;;;;;;17.41;47.84;98914.16;2264016;78;21284;-71
2021/04/12 08:42:21;;;;;;;21.27;7.20;;;;;;;17.47;48.36;98908.80;2263531;78;21158;-72
2021/04/12 08:45:24;;;;;;;25.45;7.30;;;;;;;17.71;48.40;98903.11;2263756;78;21721;-71
2021/04/12 08:48:26;;;;;;;19.95;5.53;;;;;;;17.93;45.69;98901.20;2263543;78;21268;-71
2021/04/12 08:51:28;;;;;;;21.77;7.10;;;;;;;18.05;46.29;98905.41;2263781;79;21590;-72
2021/04/12 08:54:30;;;;;;;19.35;5.42;;;;;;;18.25;45.51;98908.91;2263762;78;21122;-71
2021/04/12 08:57:32;;;;;;;20.37;5.78;;;;;;;18.53;43.87;98906.34;2263544;78;21150;-72
2021/04/12 09:00:34;;;;;;;19.77;5.70;;;;;;;18.62;44.10;98894.02;2236145;79;21289;-71
2021/04/12 09:03:36;;;;;;;16.80;4.92;;;;;;;18.67;42.41;98895.77;2263584;79;21590;-71
2021/04/12 09:06:38;;;;;;;;;;;;;;;18.69;44.96;98898.64;2266057;79;21165;-71
2021/04/12 09:09:40;;;;;;;19.20;4.97;;;;;;;18.90;43.49;98895.47;2263841;79;20133;-71
2021/04/12 09:12:42;;;;;;;16.12;4.95;;;;;;;18.66;44.14;98894.95;2263704;79;21138;-71
2021/04/12 09:15:45;;;;;;;;;;;;;;;18.66;44.14;98894.95;2238580;79;21585;-72
2021/04/12 09:18:47;;;;;;;18.15;5.40;;;;;;;19.09;44.39;98897.20;2263468;79;20235;-71
2021/04/12 09:21:49;;;;;;;;;;;;;;;19.35;43.43;98898.69;2266204;78;21323;-71
2021/04/12 09:24:51;;;;;;;16.37;4.67;;;;;;;19.45;42.61;98897.30;2263509;79;20144;-71
2021/04/12 09:27:53;;;;;;;16.07;4.15;;;;;;;19.12;41.03;98900.42;2263506;78;21271;-71
2021/04/12 09:30:55;;;;;;;;;;;;;;;18.60;41.25;98903.97;2266050;78;21114;-71
2021/04/12 09:33:57;;;;;;;9.78;3.00;;;;;;;18.16;40.62;98905.78;2263640;79;20140;-70
2021/04/12 09:36:59;;;;;;;18.27;5.12;;;;;;;17.69;40.62;98913.03;2263765;78;21256;-71
2021/04/12 09:40:01;;;;;;;17.75;4.35;;;;;;;17.55;42.40;98894.36;2236051;79;21308;-71
2021/04/12 09:43:04;;;;;;;;;;;;;;;17.74;41.69;98900.20;2266417;79;21269;-71
2021/04/12 09:46:06;;;;;;;14.45;3.83;;;;;;;17.87;42.07;98904.39;2263487;79;20153;-71
2021/04/12 09:49:08;;;;;;;16.62;4.55;;;;;;;17.91;42.10;98905.33;2263631;78;21817;-71
2021/04/12 09:52:10;;;;;;;;;;;;;;;18.35;40.81;98900.94;2266551;78;21126;-71
2021/04/12 09:55:12;;;;;;;14.63;4.10;;;;;;;18.51;41.28;98897.70;2263676;79;20570;-71
2021/04/12 09:58:14;;;;;;;15.40;4.03;;;;;;;19.01;40.98;98897.95;2236101;79;21276;-70
2021/04/12 10:01:17;;;;;;;;;;;;;;;19.01;40.98;98897.95;2238824;79;21280;-71
2021/04/12 10:04:19;;;;;;;17.40;3.92;;;;;;;18.91;40.76;98897.98;2263806;79;20244;-71
2021/04/12 10:07:22;;;;;;;16.95;4.08;;;;;;;18.80;40.38;98902.10;2263961;78;21728;-71
2021/04/12 10:10:24;;;;;;;16.77;4.42;;;;;;;18.85;40.68;98899.36;2263954;78;21129;-71
2021/04/12 10:13:26;;;;;;;15.75;4.42;;;;;;;19.18;40.54;98897.17;2263776;79;21558;-71
2021/04/12 10:16:28;;;;;;;;;;;;;;;19.56;40.71;98902.42;2266240;78;21261;-71
2021/04/12 10:19:31;;;;;;;;;;;;;;;19.58;39.92;98899.61;2266240;79;20219;-70
2021/04/12 10:22:33;;;;;;;14.95;4.25;;;;;;;19.94;40.12;98898.34;2263297;79;20228;-71
2021/04/12 10:25:35;;;;;;;;;;;;;;;20.31;39.08;98898.67;2266255;78;21095;-71
2021/04/12 10:28:37;;;;;;;15.75;4.42;;;;;;;19.92;35.74;98901.67;2263763;79;20137;-71
2021/04/12 10:31:39;;;;;;;15.85;3.85;;;;;;;19.31;39.09;98907.47;2263553;78;21256;-71
2021/04/12 10:34:41;;;;;;;;;;;;;;;19.10;39.04;98910.85;2266233;78;21142;-71
2021/04/12 10:37:43;;;;;;;16.90;4.33;;;;;;;18.70;38.39;98914.08;2263638;79;20141;-70
2021/04/12 10:40:52;;;;;;;17.15;4.92;;;;;;;18.73;39.63;98910.30;2263627;79;21126;-71
2021/04/12 10:43:54;;;;;;;12.93;4.00;;;;;;;18.76;40.14;98923.30;2263516;78;21110;-71
2021/04/12 10:46:56;;;;;;;18.52;5.10;;;;;;;18.20;40.16;98912.95;2263640;78;21277;-71
2021/04/12 10:49:58;;;;;;;19.52;4.72;;;;;;;18.21;39.81;98914.64;2263763;78;21291;-71
2021/04/12 10:53:00;;;;;;;;;;;;;;;18.11;40.66;98916.79;2266457;78;21312;-71
2021/04/12 10:56:02;;;;;;;19.02;4.90;;;;;;;17.82;40.66;98905.64;2263610;79;20252;-71
2021/04/12 10:59:04;;;;;;;17.85;4.55;;;;;;;17.56;40.27;98915.11;2263483;78;21289;-71
2021/04/12 11:02:06;;;;;;;19.87;5.35;;;;;;;17.37;40.86;98908.77;2263660;78;21146;-71
2021/04/12 11:05:08;;;;;;;19.75;5.10;;;;;;;17.37;41.51;98909.24;2263607;78;21298;-71
2021/04/12 11:08:10;;;;;;;;;;;;;;;17.31;42.35;98904.84;2266478;79;21122;-71
2021/04/12 11:11:12;;;;;;;21.82;7.35;;;;;;;17.65;42.18;98912.45;2263752;79;20133;-71
2021/04/12 11:14:14;;;;;;;;;;;;;;;17.85;40.28;98897.91;2266273;78;21728;-71
2021/04/12 11:17:17;;;;;;;24.82;8.23;;;;;;;18.06;41.03;98900.94;2263876;79;20225;-71
2021/04/12 11:20:19;;;;;;;;;;;;;;;18.48;41.87;98900.64;2266156;78;21307;-71
2021/04/12 11:23:21;;;;;;;20.80;5.45;;;;;;;18.87;41.21;98897.41;2277646;78;20243;-71
2021/04/12 11:26:23;;;;;;;17.95;4.90;;;;;;;18.97;38.50;98906.69;2283778;78;21704;-71
2021/04/12 11:29:25;;;;;;;;;;;;;;;18.83;39.95;98904.47;2286281;78;21149;-71
2021/04/12 11:32:30;;;;;;;23.00;6.22;;;;;;;19.11;40.92;98895.26;2283810;78;20251;-71
2021/04/12 11:35:31;;;;;;;18.95;5.35;;;;;;;19.44;39.72;98891.63;2283252;78;21252;-71
2021/04/12 11:38:33;;;;;;;;;;;;;;;19.59;39.95;98898.63;2286126;78;21148;-71
2021/04/12 11:41:38;;;;;;;20.68;5.62;;;;;;;19.90;38.65;98891.17;2283425;78;20231;-71
2021/04/12 11:44:40;;;;;;;;;;;;;;;19.49;38.43;98895.52;2286461;78;21260;-71
2021/04/12 11:47:42;;;;;;;17.25;4.37;;;;;;;18.99;39.58;98896.77;2283401;78;20264;-71
2021/04/12 11:50:44;;;;;;;17.80;4.30;;;;;;;18.59;37.91;98898.30;2283455;78;21747;-71
2021/04/12 11:53:46;;;;;;;;;;;;;;;18.47;40.11;98895.80;2286204;78;21129;-71
2021/04/12 11:56:48;;;;;;;17.48;4.00;;;;;;;18.80;38.43;98900.27;2283461;78;20219;-71
2021/04/12 11:59:50;;;;;;;;;;;;;;;19.20;39.77;98893.86;2285966;78;21751;-71
2021/04/12 12:02:52;;;;;;;15.75;3.87;;;;;;;19.90;37.89;98898.66;2283375;78;20141;-71
2021/04/12 12:05:54;;;;;;;;;;;;;;;20.09;38.60;98894.17;2286246;78;21684;-71
2021/04/12 12:08:59;;;;;;;17.57;4.40;;;;;;;20.26;37.81;98889.82;2283403;78;20157;-71
2021/04/12 12:12:01;;;;;;;;;;;;;;;20.58;37.65;98883.88;2286087;78;21149;-71
2021/04/12 12:15:03;;;;;;;17.98;4.55;;;;;;;20.83;37.00;98877.90;2283639;78;20116;-71
2021/04/12 12:18:06;;;;;;;15.58;4.30;;;;;;;21.16;36.31;98878.06;2283231;78;21144;-71
2021/04/12 12:21:08;;;;;;;14.73;3.98;;;;;;;21.48;36.97;98884.50;2283253;78;21165;-71
2021/04/12 12:24:11;;;;;;;20.50;4.95;;;;;;;21.56;33.83;98890.73;2265343;78;21139;-71
2021/04/12 12:27:14;;;;;;;16.15;4.40;;;;;;;21.18;36.07;98879.58;2263438;78;21146;-71
2021/04/12 12:30:16;;;;;;;16.80;4.50;;;;;;;21.22;36.30;98881.41;2263769;79;21142;-71
2021/04/12 12:33:18;;;;;;;;;;;;;;;21.10;35.49;98887.06;2266105;78;21280;-71
2021/04/12 12:36:20;;;;;;;16.15;4.30;;;;;;;20.55;37.02;98884.20;2263573;79;20121;-71
2021/04/12 12:39:22;;;;;;;;;;;;;;;19.73;36.17;98890.14;2266430;78;21324;-71
2021/04/12 12:42:24;;;;;;;16.50;4.22;;;;;;;18.98;36.03;98891.59;2263684;79;20223;-71
2021/04/12 12:45:26;;;;;;;;;;;;;;;18.43;37.91;98893.58;2266168;78;21264;-71
2021/04/12 12:48:28;;;;;;;16.50;3.95;;;;;;;17.99;38.79;98895.36;2263635;79;20499;-71
2021/04/12 12:51:30;;;;;;;19.07;4.80;;;;;;;17.78;39.37;98910.04;2263538;78;21589;-71
2021/04/12 12:54:33;;;;;;;18.42;4.80;;;;;;;17.11;42.59;98914.54;2263472;79;21748;-71
2021/04/12 12:57:35;;;;;;;23.20;5.67;;;;;;;16.52;43.02;98920.45;2263527;78;21573;-71
2021/04/12 13:00:37;;;;;;;17.07;5.00;;;;;;;16.07;44.38;98928.95;2263197;79;21284;-71
2021/04/12 13:03:39;;;;;;;17.37;4.75;;;;;;;15.69;45.23;98946.61;2263540;78;21134;-71
2021/04/12 13:06:41;;;;;;;17.67;4.53;;;;;;;15.38;46.49;98935.33;2235993;79;21289;-71
2021/04/12 13:09:43;;;;;;;19.15;5.12;;;;;;;15.22;47.06;98926.45;2263534;79;21114;-72
2021/04/12 13:12:48;;;;;;;24.60;6.05;;;;;;;15.12;47.82;98929.95;2263527;78;21277;-71
2021/04/12 13:15:50;;;;;;;19.45;6.00;;;;;;;15.04;48.14;98937.13;2263737;79;21272;-71
2021/04/12 13:18:52;;;;;;;21.82;6.67;;;;;;;14.99;49.18;98932.70;2263454;79;21170;-72
2021/04/12 13:21:54;;;;;;;26.15;7.03;;;;;;;14.97;49.59;98942.07;2263409;78;21145;-72
2021/04/12 13:24:56;;;;;;;27.07;9.13;;;;;;;14.98;49.00;98939.77;2263494;78;21125;-71
2021/04/12 13:27:58;;;;;;;28.52;11.83;;;;;;;14.97;49.22;98939.89;2263479;78;21315;-72
2021/04/12 13:31:00;;;;;;;32.93;14.90;;;;;;;14.97;50.28;98946.03;2263509;78;21169;-71
2021/04/12 13:34:02;;;;;;;29.02;13.62;;;;;;;14.97;51.40;98950.45;2263561;78;21613;-71
2021/04/12 13:37:04;;;;;;;;;;;;;;;14.99;52.08;98949.38;2266425;78;21673;-72
2021/04/12 13:40:08;;;;;;;32.73;17.10;;;;;;;15.06;52.85;98953.72;2263539;79;20519;-72
2021/04/12 13:43:10;;;;;;;36.73;19.62;;;;;;;15.05;53.96;98959.47;2263570;78;21287;-71
2021/04/12 13:46:12;;;;;;;37.98;19.50;;;;;;;14.96;54.51;98967.28;2263612;78;21158;-72
2021/04/12 13:49:14;;;;;;;38.92;20.97;;;;;;;14.83;53.86;98968.21;2263482;78;21613;-71
2021/04/12 13:52:17;;;;;;;36.68;19.80;;;;;;;14.86;53.42;98977.22;2235867;79;21268;-72
2021/04/12 13:55:19;;;;;;;34.73;19.75;;;;;;;14.89;54.32;98979.61;2263759;79;21257;-72
2021/04/12 13:58:21;;;;;;;43.50;22.22;;;;;;;14.94;54.17;98981.06;2263399;78;21158;-71
2021/04/12 14:01:23;;;;;;;38.25;22.48;;;;;;;14.73;55.45;98978.63;2263448;79;21150;-72
2021/04/12 14:04:25;;;;;;;38.10;21.10;;;;;;;14.62;57.00;98978.59;2263436;78;21118;-71
2021/04/12 14:07:27;;;;;;;39.25;21.37;;;;;;;14.60;56.32;98991.05;2263530;78;21090;-72
2021/04/12 14:10:29;;;;;;;39.78;21.10;;;;;;;14.62;55.82;98989.15;2263576;78;21118;-71
2021/04/12 14:13:31;;;;;;;37.70;21.65;;;;;;;14.63;55.74;98995.30;2263441;78;21588;-71
2021/04/12 14:16:33;;;;;;;37.03;20.95;;;;;;;14.67;56.04;98997.58;2263704;78;21110;-71
2021/04/12 14:19:35;;;;;;;37.48;22.17;;;;;;;14.76;56.44;98997.84;2263528;78;21130;-71
2021/04/12 14:22:37;;;;;;;39.75;22.17;;;;;;;14.89;55.65;99008.66;2263360;78;21174;-71